createdAt,value
2018-02-07T00:00:06.858Z,76.21
2018-02-07T00:00:47.280Z,76.5
2018-02-07T00:01:27.675Z,75.84
2018-02-07T00:02:08.073Z,75.64
2018-02-07T00:02:48.472Z,75.84
2018-02-07T00:03:28.853Z,76.12
2018-02-07T00:04:09.255Z,76.03
2018-02-07T00:04:49.633Z,75.17
2018-02-07T00:05:30.025Z,75.45
2018-02-07T00:06:10.424Z,76.31
2018-02-07T00:06:50.868Z,76.59
2018-02-07T00:07:31.265Z,76.4
2018-02-07T00:08:11.594Z,75.84
2018-02-07T00:08:52.112Z,76.78
2018-02-07T00:09:32.473Z,75.74
2018-02-07T00:10:12.856Z,75.74
2018-02-07T00:10:53.256Z,75.74
2018-02-07T00:11:33.615Z,76.12
2018-02-07T00:12:13.996Z,75.84
2018-02-07T00:12:54.373Z,74.79
2018-02-07T00:13:34.824Z,74.6
2018-02-07T00:14:15.198Z,76.12
2018-02-07T00:14:55.607Z,76.78
2018-02-07T00:15:36.011Z,76.31
2018-02-07T00:16:16.392Z,75.74
2018-02-07T00:16:56.830Z,75.93
2018-02-07T00:17:37.167Z,75.64
2018-02-07T00:18:17.615Z,75.55
2018-02-07T00:18:58.008Z,75.17
2018-02-07T00:19:38.458Z,75.07
2018-02-07T00:20:18.813Z,75.74
2018-02-07T00:20:59.247Z,75.93
2018-02-07T00:21:39.587Z,75.64
2018-02-07T00:22:20.007Z,74.79
2018-02-07T00:23:00.387Z,74.88
2018-02-07T00:23:40.803Z,75.93
2018-02-07T00:24:21.201Z,75.64
2018-02-07T00:25:01.577Z,74.88
2018-02-07T00:25:41.985Z,74.41
2018-02-07T00:26:22.281Z,75.17
2018-02-07T00:27:02.708Z,75.84
2018-02-07T00:27:43.148Z,75.74
2018-02-07T00:28:23.524Z,74.79
2018-02-07T00:29:03.912Z,74.22
2018-02-07T00:29:44.311Z,74.69
2018-02-07T00:30:24.612Z,74.69
2018-02-07T00:31:05.058Z,75.17
2018-02-07T00:31:45.410Z,75.74
2018-02-07T00:32:25.873Z,76.31
2018-02-07T00:33:06.283Z,75.74
2018-02-07T00:33:46.659Z,75.74
2018-02-07T00:34:26.991Z,76.17
2018-02-07T00:35:07.364Z,75.7
2018-02-07T00:35:47.782Z,76.08
2018-02-07T00:36:28.174Z,76.74
2018-02-07T00:37:08.585Z,76.84
2018-02-07T00:37:48.938Z,76.74
2018-02-07T00:38:29.392Z,77.69
2018-02-07T00:39:09.803Z,77.59
2018-02-07T00:39:50.191Z,78.16
2018-02-07T00:40:30.548Z,77.69
2018-02-07T00:41:10.958Z,77.88
2018-02-07T00:41:51.309Z,77.73
2018-02-07T00:42:31.701Z,76.78
2018-02-07T00:43:12.083Z,76.08
2018-02-07T00:43:52.488Z,76.59
2018-02-07T00:44:32.883Z,76.36
2018-02-07T00:45:13.232Z,76.78
2018-02-07T00:45:53.713Z,76.55
2018-02-07T00:46:34.013Z,76.55
2018-02-07T00:47:14.501Z,76.87
2018-02-07T00:47:54.892Z,75.93
2018-02-07T00:48:35.245Z,76.12
2018-02-07T00:49:15.628Z,76.55
2018-02-07T00:49:56.018Z,76.46
2018-02-07T00:50:36.462Z,76.27
2018-02-07T00:51:16.871Z,77.03
2018-02-07T00:51:57.244Z,77.22
2018-02-07T00:52:37.630Z,77.59
2018-02-07T00:53:18.058Z,77.73
2018-02-07T00:53:58.463Z,77.83
2018-02-07T00:54:38.857Z,77.92
2018-02-07T00:55:19.281Z,77.25
2018-02-07T00:55:59.622Z,76.21
2018-02-07T00:56:40.042Z,75.64
2018-02-07T00:57:20.461Z,75.26
2018-02-07T00:58:00.864Z,75.17
2018-02-07T00:58:41.237Z,74.51
2018-02-07T00:59:21.601Z,74.41
2018-02-07T01:00:02.005Z,74.41
2018-02-07T01:00:42.399Z,74.98
2018-02-07T01:01:22.829Z,75.93
2018-02-07T01:02:03.149Z,76.59
2018-02-07T01:02:43.605Z,75.74
2018-02-07T01:03:24.046Z,74.69
2018-02-07T01:04:04.358Z,75.26
2018-02-07T01:04:44.763Z,74.79
2018-02-07T01:05:25.118Z,75.64
2018-02-07T01:06:05.575Z,75.74
2018-02-07T01:06:45.991Z,75.17
2018-02-07T01:07:26.391Z,74.69
2018-02-07T01:08:06.724Z,74.6
2018-02-07T01:08:47.138Z,74.41
2018-02-07T01:09:27.531Z,74.41
2018-02-07T01:10:07.905Z,74.6
2018-02-07T01:10:48.290Z,75.64
2018-02-07T01:11:28.752Z,75.93
2018-02-07T01:12:09.137Z,75.36
2018-02-07T01:12:49.547Z,74.88
2018-02-07T01:13:29.929Z,74.69
2018-02-07T01:14:10.342Z,74.64
2018-02-07T01:14:50.693Z,74.6
2018-02-07T01:15:31.125Z,74.73
2018-02-07T01:16:11.535Z,74.16
2018-02-07T01:16:51.927Z,74.26
2018-02-07T01:17:32.283Z,74.26
2018-02-07T01:18:12.692Z,74.07
2018-02-07T01:18:53.114Z,73.6
2018-02-07T01:19:33.520Z,72.74
2018-02-07T01:20:13.948Z,73.27
2018-02-07T01:20:54.312Z,73.03
2018-02-07T01:21:34.664Z,73.46
2018-02-07T01:22:15.091Z,74.07
2018-02-07T01:22:55.514Z,73.22
2018-02-07T01:23:35.872Z,73.03
2018-02-07T01:24:16.246Z,73.6
2018-02-07T01:24:56.691Z,73.97
2018-02-07T01:25:37.104Z,74.26
2018-02-07T01:26:17.480Z,73.22
2018-02-07T01:26:57.843Z,73.41
2018-02-07T01:27:38.270Z,73.41
2018-02-07T01:28:18.687Z,72.45
2018-02-07T01:28:59.065Z,71.6
2018-02-07T01:29:39.405Z,71.32
2018-02-07T01:30:19.859Z,72.89
2018-02-07T01:31:00.258Z,72.64
2018-02-07T01:31:40.635Z,73.22
2018-02-07T01:32:20.990Z,73.22
2018-02-07T01:33:01.429Z,73.6
2018-02-07T01:33:41.811Z,73.41
2018-02-07T01:34:22.230Z,73.41
2018-02-07T01:35:02.588Z,72.74
2018-02-07T01:35:43.005Z,72.17
2018-02-07T01:36:23.424Z,72.27
2018-02-07T01:37:03.765Z,72.45
2018-02-07T01:37:44.181Z,72.42
2018-02-07T01:38:24.587Z,72.42
2018-02-07T01:39:05.036Z,72.33
2018-02-07T01:39:45.416Z,72.61
2018-02-07T01:40:25.842Z,72.89
2018-02-07T01:41:06.222Z,72.89
2018-02-07T01:41:46.662Z,72.8
2018-02-07T01:42:27.011Z,72.71
2018-02-07T01:43:07.460Z,73.6
2018-02-07T01:43:47.877Z,73.79
2018-02-07T01:44:28.235Z,73.5
2018-02-07T01:45:08.675Z,72.74
2018-02-07T01:45:49.075Z,73.12
2018-02-07T01:46:29.487Z,72.84
2018-02-07T01:47:09.858Z,72.93
2018-02-07T01:47:50.257Z,72.74
2018-02-07T01:48:30.560Z,72.17
2018-02-07T01:49:11.014Z,72.36
2018-02-07T01:49:51.398Z,72.45
2018-02-07T01:50:31.741Z,71.89
2018-02-07T01:51:12.182Z,72.36
2018-02-07T01:51:52.653Z,72.14
2018-02-07T01:52:33.036Z,72.42
2018-02-07T01:53:13.413Z,72.33
2018-02-07T01:53:53.801Z,73.46
2018-02-07T01:54:34.247Z,72.8
2018-02-07T01:55:14.624Z,72.84
2018-02-07T01:55:54.993Z,72.84
2018-02-07T01:56:35.410Z,72.45
2018-02-07T01:57:15.836Z,72.93
2018-02-07T01:57:56.213Z,72.84
2018-02-07T01:58:36.597Z,72.45
2018-02-07T01:59:17.061Z,72.93
2018-02-07T01:59:57.441Z,72.84
2018-02-07T02:00:37.779Z,72.17
2018-02-07T02:01:18.272Z,71.98
2018-02-07T02:01:58.609Z,71.41
2018-02-07T02:02:39.075Z,72.04
2018-02-07T02:03:19.413Z,72.36
2018-02-07T02:03:59.840Z,72.45
2018-02-07T02:04:40.229Z,72.14
2018-02-07T02:05:20.646Z,72.33
2018-02-07T02:06:01.161Z,72.61
2018-02-07T02:06:41.550Z,71.95
2018-02-07T02:07:21.922Z,71.76
2018-02-07T02:08:02.248Z,72.61
2018-02-07T02:08:42.705Z,72.45
2018-02-07T02:09:23.068Z,72.33
2018-02-07T02:10:03.469Z,72.61
2018-02-07T02:10:43.827Z,72.71
2018-02-07T02:11:24.275Z,72.33
2018-02-07T02:12:04.744Z,71.85
2018-02-07T02:12:45.029Z,72.27
2018-02-07T02:13:25.529Z,72.89
2018-02-07T02:14:05.883Z,72.64
2018-02-07T02:14:46.326Z,72.74
2018-02-07T02:15:26.664Z,72.55
2018-02-07T02:16:07.121Z,72.99
2018-02-07T02:16:47.431Z,73.03
2018-02-07T02:17:27.910Z,72.84
2018-02-07T02:18:08.306Z,73.03
2018-02-07T02:18:48.715Z,72.36
2018-02-07T02:19:29.109Z,71.8
2018-02-07T02:20:09.534Z,72.08
2018-02-07T02:20:49.876Z,72.27
2018-02-07T02:21:30.316Z,71.7
2018-02-07T02:22:10.616Z,71.6
2018-02-07T02:22:51.008Z,71.7
2018-02-07T02:23:31.505Z,71.66
2018-02-07T02:24:11.858Z,72.14
2018-02-07T02:24:52.276Z,72.52
2018-02-07T02:25:32.657Z,72.33
2018-02-07T02:26:13.084Z,72.71
2018-02-07T02:26:53.426Z,72.61
2018-02-07T02:27:33.876Z,72.52
2018-02-07T02:28:14.293Z,72.99
2018-02-07T02:28:54.673Z,72.33
2018-02-07T02:29:35.145Z,72.33
2018-02-07T02:30:15.458Z,72.8
2018-02-07T02:30:55.860Z,72.61
2018-02-07T02:31:36.322Z,72.8
2018-02-07T02:32:16.714Z,72.71
2018-02-07T02:32:57.088Z,72.61
2018-02-07T02:33:37.439Z,72.71
2018-02-07T02:34:17.903Z,72.8
2018-02-07T02:34:58.248Z,72.33
2018-02-07T02:35:38.714Z,72.8
2018-02-07T02:36:19.060Z,72.61
2018-02-07T02:36:59.476Z,72.61
2018-02-07T02:37:39.880Z,72.71
2018-02-07T02:38:20.296Z,72.52
2018-02-07T02:39:00.703Z,72.71
2018-02-07T02:39:41.144Z,72.61
2018-02-07T02:40:21.458Z,72.71
2018-02-07T02:41:01.876Z,73.18
2018-02-07T02:41:42.269Z,72.8
2018-02-07T02:42:22.733Z,72.71
2018-02-07T02:43:03.075Z,73.18
2018-02-07T02:43:43.519Z,73.18
2018-02-07T02:44:23.893Z,74.13
2018-02-07T02:45:04.301Z,74.13
2018-02-07T02:45:44.733Z,73.94
2018-02-07T02:46:25.079Z,72.99
2018-02-07T02:47:05.516Z,72.71
2018-02-07T02:47:45.893Z,72.99
2018-02-07T02:48:26.246Z,74.03
2018-02-07T02:49:06.668Z,74.22
2018-02-07T02:49:47.096Z,74.6
2018-02-07T02:50:27.459Z,74.41
2018-02-07T02:51:07.847Z,73.84
2018-02-07T02:51:48.235Z,74.13
2018-02-07T02:52:28.603Z,73.94
2018-02-07T02:53:09.033Z,74.22
2018-02-07T02:53:49.450Z,74.03
2018-02-07T02:54:29.841Z,74.41
2018-02-07T02:55:10.190Z,74.6
2018-02-07T02:55:50.604Z,74.69
2018-02-07T02:56:30.992Z,74.6
2018-02-07T02:57:11.421Z,74.6
2018-02-07T02:57:51.791Z,74.13
2018-02-07T02:58:32.198Z,74.6
2018-02-07T02:59:12.658Z,73.65
2018-02-07T02:59:52.976Z,73.84
2018-02-07T03:00:33.447Z,73.84
2018-02-07T03:01:13.841Z,73.65
2018-02-07T03:01:54.263Z,73.75
2018-02-07T03:02:34.669Z,73.84
2018-02-07T03:03:15.048Z,73.75
2018-02-07T03:03:55.448Z,72.71
2018-02-07T03:04:35.867Z,72.33
2018-02-07T03:05:16.223Z,72.52
2018-02-07T03:05:56.578Z,72.33
2018-02-07T03:06:36.961Z,72.8
2018-02-07T03:07:17.365Z,72.89
2018-02-07T03:07:57.798Z,72.23
2018-02-07T03:08:38.145Z,72.33
2018-02-07T03:09:18.575Z,72.14
2018-02-07T03:09:58.981Z,72.89
2018-02-07T03:10:39.326Z,72.99
2018-02-07T03:11:19.780Z,72.14
2018-02-07T03:12:00.155Z,72.04
2018-02-07T03:12:40.523Z,72.8
2018-02-07T03:13:20.925Z,72.14
2018-02-07T03:14:01.331Z,72.52
2018-02-07T03:14:41.719Z,72.33
2018-02-07T03:15:22.124Z,72.42
2018-02-07T03:16:02.495Z,71.85
2018-02-07T03:16:42.913Z,72.14
2018-02-07T03:17:23.241Z,72.33
2018-02-07T03:18:03.675Z,72.33
2018-02-07T03:18:44.019Z,72.23
2018-02-07T03:19:24.481Z,72.14
2018-02-07T03:20:04.829Z,72.61
2018-02-07T03:20:45.298Z,72.8
2018-02-07T03:21:25.620Z,72.23
2018-02-07T03:22:06.048Z,72.04
2018-02-07T03:22:46.454Z,72.23
2018-02-07T03:23:26.819Z,72.33
2018-02-07T03:24:07.216Z,72.52
2018-02-07T03:24:47.603Z,72.71
2018-02-07T03:25:28.058Z,72.71
2018-02-07T03:26:08.394Z,72.04
2018-02-07T03:26:48.790Z,72.71
2018-02-07T03:27:29.201Z,72.89
2018-02-07T03:28:09.564Z,72.8
2018-02-07T03:28:49.960Z,72.8
2018-02-07T03:29:30.396Z,72.99
2018-02-07T03:30:10.723Z,72.8
2018-02-07T03:30:51.201Z,72.42
2018-02-07T03:31:31.680Z,72.42
2018-02-07T03:32:12.080Z,72.52
2018-02-07T03:32:52.428Z,72.61
2018-02-07T03:33:32.930Z,72.89
2018-02-07T03:34:13.236Z,73.18
2018-02-07T03:34:53.644Z,72.8
2018-02-07T03:35:33.984Z,72.89
2018-02-07T03:36:14.428Z,72.33
2018-02-07T03:36:54.835Z,72.71
2018-02-07T03:37:35.179Z,72.71
2018-02-07T03:38:15.600Z,73.18
2018-02-07T03:38:56.009Z,73.08
2018-02-07T03:39:36.351Z,72.8
2018-02-07T03:40:16.833Z,71.95
2018-02-07T03:40:57.191Z,72.42
2018-02-07T03:41:37.653Z,72.71
2018-02-07T03:42:17.992Z,72.8
2018-02-07T03:42:58.416Z,72.14
2018-02-07T03:43:38.873Z,72.23
2018-02-07T03:44:19.154Z,71.85
2018-02-07T03:44:59.597Z,72.42
2018-02-07T03:45:40.019Z,72.8
2018-02-07T03:46:20.406Z,72.71
2018-02-07T03:47:00.808Z,72.99
2018-02-07T03:47:41.206Z,72.99
2018-02-07T03:48:21.562Z,72.33
2018-02-07T03:49:01.937Z,73.08
2018-02-07T03:49:42.296Z,72.71
2018-02-07T03:50:22.761Z,72.52
2018-02-07T03:51:03.151Z,72.14
2018-02-07T03:51:43.548Z,71.85
2018-02-07T03:52:23.922Z,72.23
2018-02-07T03:53:04.251Z,71.76
2018-02-07T03:53:44.688Z,72.14
2018-02-07T03:54:25.048Z,72.33
2018-02-07T03:55:05.510Z,72.23
2018-02-07T03:55:45.923Z,72.99
2018-02-07T03:56:26.311Z,72.42
2018-02-07T03:57:06.741Z,72.61
2018-02-07T03:57:47.081Z,72.89
2018-02-07T03:58:27.503Z,72.33
2018-02-07T03:59:07.851Z,72.14
2018-02-07T03:59:48.388Z,72.89
2018-02-07T04:00:28.769Z,72.89
2018-02-07T04:01:09.169Z,72.71
2018-02-07T04:01:49.603Z,72.33
2018-02-07T04:02:30.058Z,72.8
2018-02-07T04:42:38.288Z,79.93
2018-02-07T04:43:18.609Z,80.4
2018-02-07T04:43:59.042Z,80.77
2018-02-07T04:44:39.383Z,80.58
2018-02-07T04:45:19.733Z,80.4
2018-02-07T04:47:14.417Z,79.26
2018-02-07T04:47:54.636Z,79.74
2018-02-07T04:48:35.007Z,78.98
2018-02-07T04:49:15.425Z,79.55
2018-02-07T04:49:55.845Z,80.96
2018-02-07T04:50:36.220Z,80.68
2018-02-07T04:51:16.587Z,80.4
2018-02-07T04:53:14.075Z,80.15
2018-02-07T04:53:54.517Z,79.11
2018-02-07T04:54:34.884Z,78.64
2018-02-07T04:55:15.312Z,78.16
2018-02-07T04:55:55.695Z,78.64
2018-02-07T04:56:36.144Z,78.64
2018-02-07T04:57:16.493Z,78.35
2018-02-07T05:00:55.493Z,74.75
2018-02-07T05:01:38.653Z,74.47
2018-02-07T05:03:40.107Z,74.6
2018-02-07T05:05:28.219Z,73.56
2018-02-07T05:06:11.214Z,73.75
2018-02-07T05:06:51.607Z,74.6
2018-02-07T05:07:31.997Z,74.75
2018-02-07T05:08:12.388Z,74.88
2018-02-07T05:08:52.737Z,75.17
2018-02-07T05:09:33.124Z,73.84
2018-02-07T05:10:13.534Z,73.84
2018-02-07T05:10:53.910Z,74.79
2018-02-07T05:11:34.291Z,74.51
2018-02-07T05:12:14.693Z,73.08
2018-02-07T05:12:55.159Z,73.08
2018-02-07T05:13:35.521Z,73.18
2018-02-07T05:14:15.948Z,73.75
2018-02-07T05:14:56.343Z,74.6
2018-02-07T05:15:36.794Z,74.41
2018-02-07T05:16:17.220Z,74.13
2018-02-07T05:16:57.626Z,74.79
2018-02-07T05:17:38.207Z,74.6
2018-02-07T05:18:18.465Z,74.6
2018-02-07T05:18:58.886Z,73.18
2018-02-07T05:19:39.254Z,72.61
2018-02-07T05:20:19.685Z,71.95
2018-02-07T05:21:00.101Z,72.33
2018-02-07T05:21:40.490Z,72.14
2018-02-07T05:22:20.871Z,73.08
2018-02-07T05:23:01.280Z,73.43
2018-02-07T05:23:41.674Z,72.96
2018-02-07T05:24:22.072Z,73.14
2018-02-07T05:25:02.493Z,73.14
2018-02-07T05:25:42.897Z,73.71
2018-02-07T05:26:23.311Z,73.9
2018-02-07T05:27:03.720Z,73.71
2018-02-07T05:27:44.117Z,74.56
2018-02-07T05:28:24.492Z,74.56
2018-02-07T05:29:04.938Z,73.8
2018-02-07T05:31:25.872Z,73.9
2018-02-07T05:32:06.505Z,73.71
2018-02-07T05:32:46.888Z,74.09
2018-02-07T05:33:27.283Z,74.56
2018-02-07T05:34:07.672Z,74.47
2018-02-07T05:34:48.100Z,74.66
2018-02-07T05:35:28.464Z,73.99
2018-02-07T05:36:08.873Z,75.04
2018-02-07T05:36:49.276Z,73.99
2018-02-07T05:37:29.671Z,73.99
2018-02-07T05:38:10.019Z,74.37
2018-02-07T05:38:50.459Z,74.75
2018-02-07T05:39:30.880Z,74.47
2018-02-07T05:40:11.283Z,75.89
2018-02-07T05:40:51.666Z,75.13
2018-02-07T05:41:32.075Z,74.66
2018-02-07T05:42:12.498Z,73.71
2018-02-07T05:42:52.864Z,73.99
2018-02-07T05:43:33.230Z,73.71
2018-02-07T05:44:13.640Z,73.71
2018-02-07T05:44:53.992Z,74.56
2018-02-07T05:45:34.409Z,73.8
2018-02-07T05:46:14.830Z,74.28
2018-02-07T05:46:55.303Z,75.09
2018-02-07T05:47:35.684Z,75.85
2018-02-07T05:48:16.083Z,76.23
2018-02-07T05:48:56.465Z,75.47
2018-02-07T05:49:36.879Z,75.47
2018-02-07T05:50:17.330Z,76.04
2018-02-07T05:50:57.830Z,76.32
2018-02-07T05:51:38.291Z,75.66
2018-02-07T05:52:18.721Z,75.66
2018-02-07T05:52:59.136Z,74.81
2018-02-07T05:53:39.644Z,75.85
2018-02-07T05:54:20.001Z,76.42
2018-02-07T05:55:00.406Z,76.89
2018-02-07T05:55:40.826Z,77.18
2018-02-07T05:56:21.209Z,76.61
2018-02-07T05:57:01.616Z,75.85
2018-02-07T05:57:42.026Z,76.14
2018-02-07T05:58:22.463Z,76.8
2018-02-07T05:59:02.805Z,76.04
2018-02-07T05:59:43.210Z,75
2018-02-07T06:00:23.611Z,75.09
2018-02-07T06:01:04.010Z,74.81
2018-02-07T06:01:44.461Z,75.85
2018-02-07T06:02:25.509Z,74.71
2018-02-07T06:03:05.915Z,75.09
2018-02-07T06:05:27.142Z,76.8
2018-02-07T06:06:13.255Z,76.8
2018-02-07T06:07:01.025Z,75.66
2018-02-07T06:07:46.410Z,75.57
2018-02-07T06:08:26.816Z,75.57
2018-02-07T06:09:07.199Z,75.66
2018-02-07T06:09:47.609Z,76.04
2018-02-07T06:10:28.033Z,75.47
2018-02-07T06:11:08.456Z,76.14
2018-02-07T06:11:48.828Z,75.76
2018-02-07T06:13:49.742Z,75.09
2018-02-07T06:14:35.819Z,75.57
2018-02-07T06:15:17.047Z,74.9
2018-02-07T06:15:57.511Z,75.09
2018-02-07T06:16:37.857Z,75.66
2018-02-07T06:17:18.487Z,75
2018-02-07T06:19:20.985Z,74.43
2018-02-07T06:21:24.921Z,76.7
2018-02-07T06:22:09.374Z,75.47
2018-02-07T06:22:51.087Z,75.57
2018-02-07T06:23:31.575Z,74.9
2018-02-07T06:24:11.935Z,74.62
2018-02-07T06:24:52.293Z,74.62
2018-02-07T06:25:32.973Z,74.62
2018-02-07T06:26:13.613Z,74.71
2018-02-07T06:26:53.970Z,74.52
2018-02-07T06:27:34.355Z,75.28
2018-02-07T06:28:14.875Z,75.57
2018-02-07T06:28:55.280Z,75.95
2018-02-07T06:29:35.660Z,76.14
2018-02-07T06:30:16.075Z,75.38
2018-02-07T06:30:56.434Z,75.28
2018-02-07T06:31:36.833Z,75.66
2018-02-07T06:34:44.552Z,74.71
2018-02-07T06:35:26.204Z,75
2018-02-07T06:36:07.361Z,75.66
2018-02-07T06:36:47.753Z,75.09
2018-02-07T06:37:28.131Z,74.9
2018-02-07T06:40:07.551Z,74.24
2018-02-07T06:40:52.292Z,74.52
2018-02-07T06:41:32.717Z,75.09
2018-02-07T06:42:13.150Z,77.18
2018-02-07T06:42:53.572Z,78.22
2018-02-07T06:43:33.949Z,77.84
2018-02-07T06:44:14.508Z,76.51
2018-02-07T06:44:54.920Z,76.61
2018-02-07T06:45:35.281Z,76.51
2018-02-07T06:46:15.764Z,76.61
2018-02-07T06:46:56.126Z,75.38
2018-02-07T06:47:36.558Z,75.76
2018-02-07T06:48:16.966Z,75.38
2018-02-07T06:48:57.327Z,76.14
2018-02-07T06:49:37.696Z,76.04
2018-02-07T06:50:18.072Z,75.85
2018-02-07T06:50:58.477Z,74.9
2018-02-07T06:51:38.898Z,75.28
2018-02-07T06:52:19.464Z,75.28
2018-02-07T06:52:59.868Z,75.6
2018-02-07T06:53:40.268Z,75.89
2018-02-07T06:54:20.729Z,74.66
2018-02-07T06:55:01.147Z,74.56
2018-02-07T06:55:41.481Z,75.13
2018-02-07T06:56:23.731Z,74.75
2018-02-07T06:57:03.356Z,74.66
2018-02-07T06:57:43.547Z,74.37
2018-02-07T06:58:23.964Z,74.75
2018-02-07T06:59:04.354Z,75.32
2018-02-07T06:59:44.780Z,75.13
2018-02-07T07:00:25.264Z,74.09
2018-02-07T07:01:05.807Z,73.8
2018-02-07T07:01:46.554Z,74.56
2018-02-07T07:02:29.272Z,74.37
2018-02-07T07:03:09.890Z,74.22
2018-02-07T07:03:50.329Z,73.37
2018-02-07T07:04:30.860Z,73.27
2018-02-07T07:05:11.442Z,72.52
2018-02-07T07:05:51.955Z,71.85
2018-02-07T07:06:32.413Z,71.19
2018-02-07T07:07:12.814Z,71.09
2018-02-07T07:07:53.249Z,70.81
2018-02-07T07:08:33.664Z,70.43
2018-02-07T07:09:14.158Z,70.58
2018-02-07T07:09:54.651Z,71
2018-02-07T07:10:35.081Z,71.34
2018-02-07T07:11:15.455Z,71.44
2018-02-07T07:11:55.828Z,71.15
2018-02-07T07:12:36.347Z,70.97
2018-02-07T07:13:18.336Z,71.72
2018-02-07T07:18:31.872Z,72.29
2018-02-07T07:19:22.729Z,72.29
2018-02-07T07:21:31.722Z,72.48
2018-02-07T07:30:08.100Z,72.14
2018-02-07T07:30:52.422Z,71.19
2018-02-07T07:31:32.818Z,70.62
2018-02-07T07:32:13.313Z,72.14
2018-02-07T07:32:53.744Z,72.04
2018-02-07T07:33:34.064Z,71.09
2018-02-07T07:34:14.607Z,69.57
2018-02-07T07:34:56.232Z,69.01
2018-02-07T07:36:51.176Z,70.11
2018-02-07T07:37:32.897Z,71.06
2018-02-07T07:38:13.651Z,71.66
2018-02-07T07:38:54.620Z,72.14
2018-02-07T07:39:35.050Z,72.14
2018-02-07T07:40:15.447Z,70.53
2018-02-07T07:40:55.819Z,69.92
2018-02-07T07:41:36.244Z,70.78
2018-02-07T07:44:49.985Z,71.15
2018-02-07T07:50:56.815Z,70.01
2018-02-07T07:56:35.201Z,73.24
2018-02-07T07:58:41.854Z,72.29
2018-02-07T08:01:19.652Z,72.96
2018-02-07T08:05:58.120Z,72.67
2018-02-07T08:06:50.414Z,72.67
2018-02-07T08:09:10.426Z,72.19
2018-02-07T08:10:06.691Z,72.1
2018-02-07T08:10:59.017Z,72.29
2018-02-07T08:12:04.184Z,71.81
2018-02-07T08:12:58.743Z,69.82
2018-02-07T08:13:49.587Z,70.11
2018-02-07T08:14:30.688Z,70.58
2018-02-07T08:15:13.267Z,71.62
2018-02-07T08:15:53.799Z,71.06
2018-02-07T08:16:34.271Z,70.39
2018-02-07T08:17:14.807Z,70.3
2018-02-07T08:17:55.350Z,71.34
2018-02-07T08:18:35.783Z,72.57
2018-02-07T08:19:16.239Z,72
2018-02-07T08:19:56.676Z,71.53
2018-02-07T08:20:37.470Z,71.25
2018-02-07T08:21:33.472Z,71.72
2018-02-07T08:28:08.787Z,68.54
2018-02-07T08:30:51.194Z,67.81
2018-02-07T08:32:03.355Z,66.96
2018-02-07T08:32:56.391Z,66.48
2018-02-07T08:33:50.399Z,67.14
2018-02-07T08:41:40.338Z,68
2018-02-07T08:48:04.149Z,67.62
2018-02-07T08:52:24.831Z,66.1
2018-02-07T08:53:26.765Z,65.85
2018-02-07T08:54:32.469Z,64.43
2018-02-07T08:55:34.924Z,63.48
2018-02-07T09:00:22.182Z,60.88
2018-02-07T09:02:16.335Z,59.01
2018-02-07T09:04:18.942Z,57.5
2018-02-07T09:06:24.604Z,56.29
2018-02-07T09:10:56.552Z,54.96
2018-02-07T09:11:54.629Z,53.81
2018-02-07T09:13:01.259Z,54.32
2018-02-07T09:13:56.207Z,53.75
2018-02-07T09:21:49.558Z,50.15
2018-02-07T09:39:25.801Z,50.94
2018-02-07T09:40:19.648Z,50.46
2018-02-07T09:43:06.105Z,49.51
2018-02-07T09:43:46.408Z,49.8
2018-02-07T09:44:26.846Z,49.44
2018-02-07T09:45:07.395Z,49.82
2018-02-07T09:45:47.846Z,49.06
2018-02-07T09:46:28.220Z,48.58
2018-02-07T09:48:11.756Z,48.3
2018-02-07T09:48:52.367Z,48.39
2018-02-07T09:49:32.895Z,48.49
2018-02-07T09:50:13.267Z,47.92
2018-02-07T09:50:53.769Z,48.39
2018-02-07T09:51:36.365Z,48.97
2018-02-07T09:52:15.974Z,49.35
2018-02-07T09:52:56.408Z,48.97
2018-02-07T09:53:37.954Z,49.51
2018-02-07T09:54:18.529Z,48.66
2018-02-07T09:54:58.789Z,49.42
2018-02-07T09:55:39.234Z,49.32
2018-02-07T09:56:19.975Z,50.06
2018-02-07T09:57:00.515Z,50.73
2018-02-07T09:57:41.353Z,50.35
2018-02-07T09:58:21.690Z,50.44
2018-02-07T09:59:03.169Z,50.54
2018-02-07T09:59:43.644Z,51.58
2018-02-07T10:00:24.182Z,51.46
2018-02-07T10:01:05.267Z,51.56
2018-02-07T10:01:45.777Z,52.98
2018-02-07T10:02:26.409Z,52.13
2018-02-07T10:03:08.439Z,51.65
2018-02-07T10:03:50.370Z,52.7
2018-02-07T10:04:30.077Z,52.67
2018-02-07T10:44:57.198Z,45.99
2018-02-07T10:45:38.765Z,44.84
2018-02-07T10:46:19.210Z,44.37
2018-02-07T10:46:59.529Z,44.74
2018-02-07T10:47:39.912Z,44.56
2018-02-07T10:48:20.382Z,44.65
2018-02-07T10:50:34.381Z,45.29
2018-02-07T10:51:16.375Z,45.97
2018-02-07T10:51:56.881Z,45.49
2018-02-07T10:52:37.242Z,45.94
2018-02-07T10:53:17.710Z,46.32
2018-02-07T10:53:58.121Z,49.47
2018-02-07T10:54:38.559Z,48.52
2018-02-07T10:55:19.250Z,48.23
2018-02-07T10:55:59.740Z,46.68
2018-02-07T10:56:41.259Z,46.87
2018-02-07T10:57:21.593Z,48.58
2018-02-07T10:58:02.317Z,47.82
2018-02-07T10:58:42.880Z,48.78
2018-02-07T10:59:23.321Z,50.11
2018-02-07T11:00:03.733Z,50.68
2018-02-07T11:00:44.312Z,50.4
2018-02-07T11:01:24.776Z,50.42
2018-02-07T11:02:10.086Z,49.37
2018-02-07T11:03:00.040Z,48.02
2018-02-07T11:07:31.460Z,49.06
2018-02-07T11:08:27.302Z,47.92
2018-02-07T11:09:20.432Z,47.73
2018-02-07T11:15:38.075Z,50.11
2018-02-07T11:19:39.394Z,46.97
2018-02-07T11:20:20.664Z,47.82
2018-02-07T11:21:01.335Z,46.68
2018-02-07T11:21:41.890Z,48.02
2018-02-07T11:22:23.851Z,49.99
2018-02-07T11:23:04.925Z,49.8
2018-02-07T11:28:11.207Z,49.51
2018-02-07T11:28:48.384Z,51.04
2018-02-07T11:29:28.838Z,51.04
2018-02-07T11:30:09.176Z,50.27
2018-02-07T11:30:49.577Z,50.66
2018-02-07T11:31:30.035Z,51.1
2018-02-07T11:32:10.415Z,51.58
2018-02-07T11:32:50.896Z,52.06
2018-02-07T11:33:31.236Z,52.72
2018-02-07T11:34:11.693Z,51.49
2018-02-07T11:34:52.138Z,52.63
2018-02-07T11:35:32.441Z,53.11
2018-02-07T11:36:12.889Z,52.63
2018-02-07T11:36:53.427Z,51.93
2018-02-07T11:37:34.081Z,53.2
2018-02-07T11:38:14.236Z,53.36
2018-02-07T11:40:10.122Z,53.27
2018-02-07T11:46:37.220Z,55.46
2018-02-07T11:47:16.254Z,54.32
2018-02-07T11:47:56.717Z,53.63
2018-02-07T11:48:37.067Z,54.32
2018-02-07T11:49:17.491Z,55.74
2018-02-07T11:49:57.917Z,55.81
2018-02-07T11:50:38.352Z,56.7
2018-02-07T11:51:18.827Z,56.7
2018-02-07T11:51:59.139Z,56.31
2018-02-07T11:52:42.280Z,55.74
2018-02-07T11:53:22.304Z,54.89
2018-02-07T11:54:11.907Z,55.27
2018-02-07T11:54:53.022Z,55.65
2018-02-07T11:55:32.597Z,56.29
2018-02-07T11:56:13.009Z,56.1
2018-02-07T11:56:53.470Z,56
2018-02-07T11:57:33.983Z,56.19
2018-02-07T11:58:14.256Z,56.85
2018-02-07T11:58:54.679Z,55.81
2018-02-07T11:59:35.074Z,55.15
2018-02-07T12:00:15.474Z,54.96
2018-02-07T12:00:55.906Z,55.15
2018-02-07T12:01:36.266Z,56.57
2018-02-07T12:02:16.629Z,56.57
2018-02-07T12:04:42.572Z,57.52
2018-02-07T12:05:28.310Z,57.14
2018-02-07T12:06:14.197Z,57.14
2018-02-07T12:06:55.478Z,56.29
2018-02-07T12:07:35.895Z,57.62
2018-02-07T12:08:16.855Z,57.81
2018-02-07T12:08:57.154Z,56.57
2018-02-07T12:09:38.438Z,56.76
2018-02-07T12:10:18.753Z,56.6
2018-02-07T12:10:59.965Z,57.45
2018-02-07T12:11:40.243Z,56.7
2018-02-07T12:12:20.968Z,56.79
2018-02-07T12:13:01.549Z,55.55
2018-02-07T12:13:42.334Z,55.27
2018-02-07T12:14:23.310Z,56.41
2018-02-07T12:15:03.881Z,55.83
2018-02-07T12:15:45.128Z,56.51
2018-02-07T12:16:26.417Z,55.93
2018-02-07T12:17:08.036Z,56.31
2018-02-07T12:17:49.147Z,56.7
2018-02-07T12:18:29.162Z,56.22
2018-02-07T12:19:10.495Z,54.38
2018-02-07T12:19:50.462Z,55.74
2018-02-07T12:20:31.072Z,56.88
2018-02-07T12:21:11.657Z,56.98
2018-02-07T12:21:51.934Z,56.88
2018-02-07T12:22:32.335Z,57.07
2018-02-07T12:23:12.794Z,56.7
2018-02-07T12:23:59.415Z,56.51
2018-02-07T12:24:39.944Z,55.17
2018-02-07T12:25:20.225Z,54.98
2018-02-07T12:26:00.658Z,55.65
2018-02-07T12:26:41.163Z,56.79
2018-02-07T12:27:22.534Z,55.08
2018-02-07T12:29:34.833Z,54.98
2018-02-07T12:30:17.549Z,55.08
2018-02-07T12:30:59.430Z,55.17
2018-02-07T12:31:39.275Z,55.74
2018-02-07T12:32:19.957Z,55.17
2018-02-07T12:33:00.399Z,55.17
2018-02-07T12:33:40.852Z,54.98
2018-02-07T12:34:21.290Z,54.41
2018-02-07T12:35:01.646Z,55.17
2018-02-07T12:35:42.168Z,55.08
2018-02-07T12:36:22.865Z,55.08
2018-02-07T12:37:04.206Z,54.98
2018-02-07T12:37:44.102Z,54.69
2018-02-07T12:38:24.542Z,55.08
2018-02-07T12:39:04.935Z,55.08